Time;durP1;ratioP1;P1;durP2;ratioP2;P2;SDS_P1;SDS_P2;PMS_P1;PMS_P2;Temp;Humidity;BMP_temperature;BMP_pressure;BME280_temperature;BME280_humidity;BME280_pressure;Samples;Min_cycle;Max_cycle;Signal;HPM_P1;HPM_P2
2022/02/26 00:00:55;;;;;;;2.07;1.90;;;3.80;98.00;;;;;;5079202;28;20509;-70
2022/02/26 00:03:22;;;;;;;1.40;1.20;;;3.60;98.00;;;;;;5097101;28;20523;-70
2022/02/26 00:05:49;;;;;;;1.27;1.13;;;3.60;98.00;;;;;;5097113;28;20487;-69
2022/02/26 00:08:18;;;;;;;1.20;1.00;;;3.60;98.00;;;;;;5097139;28;20861;-70
2022/02/26 00:10:49;;;;;;;1.73;1.20;;;3.70;98.00;;;;;;5096780;28;20571;-70
2022/02/26 00:13:16;;;;;;;1.30;1.20;;;3.80;98.00;;;;;;5096696;28;20448;-69
2022/02/26 00:15:45;;;;;;;1.40;1.23;;;3.90;98.00;;;;;;5115015;27;20534;-70
2022/02/26 00:18:12;;;;;;;1.53;1.53;;;3.90;98.00;;;;;;5113787;28;20460;-70
2022/02/26 00:20:39;;;;;;;1.30;1.00;;;3.90;98.00;;;;;;5114182;28;20520;-69
2022/02/26 00:23:06;;;;;;;1.67;1.57;;;4.00;98.00;;;;;;5114074;28;20460;-70
2022/02/26 00:25:35;;;;;;;1.70;1.63;;;4.20;98.00;;;;;;5114251;28;20492;-70
2022/02/26 00:28:03;;;;;;;1.20;1.07;;;4.20;98.00;;;;;;5114132;28;20461;-70
2022/02/26 00:30:30;;;;;;;1.20;1.00;;;4.30;98.00;;;;;;5114126;28;20456;-70
2022/02/26 00:32:57;;;;;;;1.17;1.07;;;4.40;98.00;;;;;;5114120;28;20485;-69
2022/02/26 00:35:24;;;;;;;6.20;1.37;;;4.40;98.00;;;;;;5114032;28;20542;-70
2022/02/26 00:37:51;;;;;;;1.10;1.00;;;4.40;98.00;;;;;;5113439;27;20895;-70
2022/02/26 00:40:18;;;;;;;1.20;1.03;;;4.40;98.00;;;;;;5112717;28;20479;-70
2022/02/26 00:42:45;;;;;;;2.70;1.37;;;4.40;98.00;;;;;;5113575;28;20456;-69
2022/02/26 00:45:21;;;;;;;1.20;1.00;;;4.40;98.00;;;;;;5113795;28;20523;-70
2022/02/26 00:47:48;;;;;;;1.43;1.30;;;4.60;98.00;;;;;;5113866;28;20493;-70
2022/02/26 00:50:14;;;;;;;1.10;0.90;;;4.70;98.00;;;;;;5113823;28;20956;-69
2022/02/26 00:52:41;;;;;;;1.10;1.00;;;4.70;98.00;;;;;;5113616;28;20464;-69
2022/02/26 00:55:10;;;;;;;4.53;2.50;;;4.80;98.00;;;;;;5113579;28;20452;-69
2022/02/26 00:57:37;;;;;;;1.20;1.00;;;4.80;98.00;;;;;;5113336;28;20490;-70
2022/02/26 01:00:07;;;;;;;3.40;2.10;;;4.80;98.00;;;;;;5113448;28;20488;-69
2022/02/26 01:02:35;;;;;;;1.83;1.20;;;4.70;98.00;;;;;;5113514;28;20453;-69
2022/02/26 01:05:03;;;;;;;1.33;1.30;;;4.60;98.00;;;;;;5113309;28;20519;-69
2022/02/26 01:07:30;;;;;;;1.20;1.00;;;4.50;98.00;;;;;;5113292;28;20452;-70
2022/02/26 01:09:57;;;;;;;1.40;1.10;;;4.40;98.00;;;;;;5113244;28;20490;-70
2022/02/26 01:12:25;;;;;;;1.10;1.00;;;4.60;98.00;;;;;;5113277;28;21027;-69
2022/02/26 01:14:51;;;;;;;2.80;1.90;;;4.60;98.00;;;;;;5097822;28;20445;-69
2022/02/26 01:17:19;;;;;;;2.30;1.87;;;4.60;98.00;;;;;;5092725;28;20496;-70
2022/02/26 01:19:49;;;;;;;1.50;1.40;;;4.60;98.00;;;;;;5092658;28;20457;-69
2022/02/26 01:22:16;;;;;;;5.23;2.13;;;4.70;98.00;;;;;;5092630;28;20474;-69
2022/02/26 01:24:43;;;;;;;1.30;1.10;;;4.60;98.00;;;;;;5092414;28;20582;-70
2022/02/26 01:27:10;;;;;;;1.40;1.30;;;4.50;98.00;;;;;;5091503;28;20468;-70
2022/02/26 01:29:37;;;;;;;1.20;1.00;;;4.50;98.00;;;;;;5092618;28;20505;-69
2022/02/26 01:32:06;;;;;;;3.47;1.83;;;4.60;98.00;;;;;;5092528;28;20518;-69
2022/02/26 01:34:33;;;;;;;1.30;1.20;;;4.60;98.00;;;;;;5092251;28;20762;-69
2022/02/26 01:37:03;;;;;;;1.20;1.13;;;4.60;98.00;;;;;;5092523;28;20485;-69
2022/02/26 01:39:30;;;;;;;1.30;1.10;;;4.50;98.00;;;;;;5092553;28;20873;-69
2022/02/26 01:41:58;;;;;;;1.20;0.97;;;4.60;98.00;;;;;;5092487;28;21015;-69
2022/02/26 01:44:25;;;;;;;1.13;0.97;;;4.60;98.00;;;;;;5092376;28;20824;-69
2022/02/26 01:46:52;;;;;;;1.77;1.53;;;4.50;98.00;;;;;;5092079;28;20492;-69
2022/02/26 01:49:22;;;;;;;1.30;1.23;;;4.40;98.00;;;;;;5092207;28;20455;-70
2022/02/26 01:51:50;;;;;;;1.40;1.30;;;4.40;98.00;;;;;;5092033;28;20486;-70
2022/02/26 01:54:22;;;;;;;1.20;1.00;;;4.40;98.00;;;;;;5091989;28;20887;-69
2022/02/26 01:56:49;;;;;;;1.10;1.00;;;4.40;98.00;;;;;;5090590;28;20896;-69
2022/02/26 01:59:19;;;;;;;1.20;1.00;;;4.40;98.00;;;;;;5091927;28;20488;-69
2022/02/26 02:01:46;;;;;;;1.20;1.00;;;4.40;98.00;;;;;;5091711;28;20476;-69
2022/02/26 02:04:14;;;;;;;1.53;1.47;;;4.30;98.00;;;;;;5091657;28;21032;-69
2022/02/26 02:06:43;;;;;;;1.20;0.90;;;4.40;98.00;;;;;;5091921;28;20482;-69
2022/02/26 02:09:11;;;;;;;1.20;0.90;;;4.40;98.00;;;;;;5091828;28;20461;-70
2022/02/26 02:11:41;;;;;;;1.20;1.20;;;4.40;98.00;;;;;;5091931;28;20891;-69
2022/02/26 02:14:08;;;;;;;3.00;1.40;;;4.50;98.00;;;;;;5098609;28;20514;-70
2022/02/26 02:16:36;;;;;;;1.17;1.00;;;4.60;98.00;;;;;;5111979;28;20495;-69
2022/02/26 02:19:06;;;;;;;1.20;1.00;;;4.60;98.00;;;;;;5111872;28;20459;-69
2022/02/26 02:21:33;;;;;;;1.20;1.00;;;4.60;98.00;;;;;;5112104;28;20471;-69
2022/02/26 02:24:01;;;;;;;1.20;1.00;;;4.60;98.00;;;;;;5111754;28;20845;-70
2022/02/26 02:26:30;;;;;;;1.20;0.90;;;4.50;98.00;;;;;;5111911;28;20459;-69
2022/02/26 02:28:58;;;;;;;1.20;1.10;;;4.50;98.00;;;;;;5112040;28;20462;-69
2022/02/26 02:31:27;;;;;;;1.20;1.10;;;4.50;98.00;;;;;;5112031;28;20461;-69
2022/02/26 02:33:54;;;;;;;5.00;2.00;;;4.50;98.00;;;;;;5111892;28;21034;-69
2022/02/26 02:36:22;;;;;;;1.20;1.00;;;4.40;98.00;;;;;;5111902;28;20496;-69
2022/02/26 02:38:49;;;;;;;1.20;1.10;;;4.30;98.00;;;;;;5111322;28;20479;-69
2022/02/26 02:41:18;;;;;;;1.30;1.10;;;4.30;98.00;;;;;;5111717;28;20456;-69
2022/02/26 02:43:44;;;;;;;1.30;1.00;;;4.30;98.00;;;;;;5111429;28;20444;-69
2022/02/26 02:46:12;;;;;;;1.40;1.23;;;4.30;98.00;;;;;;5111857;28;20562;-70
2022/02/26 02:48:42;;;;;;;1.53;1.30;;;4.20;98.00;;;;;;5111452;28;20480;-69
2022/02/26 02:51:09;;;;;;;1.23;1.10;;;4.20;98.00;;;;;;5110406;28;20568;-69
2022/02/26 02:53:38;;;;;;;1.30;1.30;;;4.00;98.00;;;;;;5111399;28;20543;-69
2022/02/26 02:56:06;;;;;;;1.20;1.00;;;4.00;98.00;;;;;;5111386;28;20452;-70
2022/02/26 02:58:36;;;;;;;1.30;1.10;;;4.10;98.00;;;;;;5111130;28;20892;-69
2022/02/26 03:01:03;;;;;;;1.20;1.00;;;4.10;98.00;;;;;;5110194;28;20458;-69
2022/02/26 03:03:32;;;;;;;1.20;1.00;;;4.00;98.00;;;;;;5111283;28;21007;-69
2022/02/26 03:05:59;;;;;;;1.20;1.10;;;4.00;98.00;;;;;;5111178;28;20510;-69
2022/02/26 03:08:26;;;;;;;1.17;0.90;;;4.00;98.00;;;;;;5110089;28;20444;-69
2022/02/26 03:10:54;;;;;;;1.10;0.90;;;4.00;98.00;;;;;;5111217;28;20537;-70
2022/02/26 03:13:24;;;;;;;1.20;1.00;;;4.10;98.00;;;;;;5109434;28;20517;-70
2022/02/26 03:15:53;;;;;;;1.13;0.90;;;4.20;98.00;;;;;;5111262;28;20480;-69
2022/02/26 03:18:22;;;;;;;1.17;0.90;;;4.20;98.00;;;;;;5111301;28;20536;-70
2022/02/26 03:20:49;;;;;;;1.13;1.03;;;4.20;98.00;;;;;;5111389;28;20467;-69
2022/02/26 03:23:17;;;;;;;1.40;1.17;;;4.20;98.00;;;;;;5111559;28;20842;-69
2022/02/26 03:25:45;;;;;;;1.20;0.93;;;4.10;98.00;;;;;;5111012;28;20516;-69
2022/02/26 03:28:14;;;;;;;1.20;1.10;;;4.10;98.00;;;;;;5110034;28;20456;-69
2022/02/26 03:30:41;;;;;;;1.10;0.90;;;4.10;98.00;;;;;;5110956;28;20552;-69
2022/02/26 03:33:11;;;;;;;1.20;1.00;;;4.20;98.00;;;;;;5111164;28;20884;-69
2022/02/26 03:35:40;;;;;;;1.40;1.30;;;4.10;98.00;;;;;;5110887;28;20448;-69
2022/02/26 03:38:08;;;;;;;1.60;1.17;;;4.10;98.00;;;;;;5111248;28;20452;-69
2022/02/26 03:40:35;;;;;;;1.20;1.00;;;4.10;98.00;;;;;;5109755;28;20514;-69
2022/02/26 03:43:02;;;;;;;1.20;1.00;;;4.10;98.00;;;;;;5110769;28;20492;-69
2022/02/26 03:45:30;;;;;;;1.20;1.00;;;4.00;98.00;;;;;;5110679;28;20484;-69
2022/02/26 03:47:57;;;;;;;1.60;1.50;;;4.00;98.00;;;;;;5111022;28;20560;-69
2022/02/26 03:50:25;;;;;;;1.33;1.30;;;4.10;98.00;;;;;;5110154;28;20880;-69
2022/02/26 03:52:52;;;;;;;1.40;1.17;;;4.00;98.00;;;;;;5114890;28;20498;-69
2022/02/26 03:55:19;;;;;;;1.60;1.53;;;4.10;98.00;;;;;;5113521;28;20995;-69
2022/02/26 03:57:46;;;;;;;2.53;1.70;;;4.20;98.00;;;;;;5114713;28;20498;-69
2022/02/26 04:00:14;;;;;;;1.20;1.00;;;4.10;98.00;;;;;;5114530;28;20513;-69
2022/02/26 04:02:41;;;;;;;1.20;1.10;;;4.10;98.00;;;;;;5114898;28;20566;-69
2022/02/26 04:05:08;;;;;;;1.17;1.07;;;4.00;98.00;;;;;;5114482;28;20570;-69
2022/02/26 04:07:40;;;;;;;1.40;1.37;;;4.00;98.00;;;;;;5114478;28;20495;-69
2022/02/26 04:10:08;;;;;;;1.27;1.23;;;4.10;98.00;;;;;;5114677;28;20453;-69
2022/02/26 04:12:35;;;;;;;1.83;1.50;;;3.90;98.00;;;;;;5114585;28;20479;-70
2022/02/26 04:15:03;;;;;;;2.07;1.93;;;3.90;98.00;;;;;;5112646;28;20963;-69
2022/02/26 04:17:30;;;;;;;1.73;1.20;;;4.00;98.00;;;;;;5113101;28;20512;-69
2022/02/26 04:19:57;;;;;;;1.20;1.10;;;4.20;98.00;;;;;;5114638;28;20492;-69
2022/02/26 04:22:28;;;;;;;1.30;1.20;;;4.00;98.00;;;;;;5114395;28;20451;-69
2022/02/26 04:24:56;;;;;;;2.23;1.50;;;4.00;98.00;;;;;;5114201;28;20483;-69
2022/02/26 04:27:23;;;;;;;1.20;0.93;;;4.10;98.00;;;;;;5112917;28;20564;-69
2022/02/26 04:29:50;;;;;;;1.20;1.07;;;4.10;98.00;;;;;;5114054;28;20516;-69
2022/02/26 04:32:17;;;;;;;1.97;1.73;;;4.00;98.00;;;;;;5114276;28;20480;-69
2022/02/26 04:34:44;;;;;;;4.20;1.93;;;3.90;98.00;;;;;;5114012;28;21013;-69
2022/02/26 04:37:10;;;;;;;1.30;1.20;;;3.80;98.00;;;;;;5114011;28;20487;-69
2022/02/26 04:39:37;;;;;;;1.20;1.00;;;3.90;98.00;;;;;;5113890;28;20487;-69
2022/02/26 04:42:07;;;;;;;1.30;1.10;;;4.00;98.00;;;;;;5113691;28;20513;-69
2022/02/26 04:44:39;;;;;;;1.17;0.90;;;4.20;98.00;;;;;;5113679;28;21044;-69
2022/02/26 04:47:06;;;;;;;2.90;1.37;;;4.20;98.00;;;;;;5113625;28;20487;-69
2022/02/26 04:49:33;;;;;;;1.30;1.30;;;4.20;98.00;;;;;;5113725;28;20508;-69
2022/02/26 04:52:00;;;;;;;1.50;1.47;;;4.30;98.00;;;;;;5113891;28;20884;-69
2022/02/26 04:54:28;;;;;;;2.43;2.03;;;4.30;98.00;;;;;;5113429;28;20849;-69
2022/02/26 04:56:55;;;;;;;1.60;1.33;;;4.10;98.00;;;;;;5113596;28;20465;-69
2022/02/26 04:59:23;;;;;;;1.20;0.97;;;4.00;98.00;;;;;;5112289;28;20491;-69
2022/02/26 05:01:50;;;;;;;1.37;1.20;;;4.10;98.00;;;;;;5113406;28;20495;-69
2022/02/26 05:04:17;;;;;;;1.83;1.33;;;4.10;98.00;;;;;;5113652;28;20564;-69
2022/02/26 05:06:44;;;;;;;1.20;1.20;;;4.00;98.00;;;;;;5113839;28;20528;-69
2022/02/26 05:09:11;;;;;;;1.50;1.40;;;4.10;98.00;;;;;;5113338;28;20547;-69
2022/02/26 05:11:38;;;;;;;1.33;1.20;;;4.10;98.00;;;;;;5112281;28;20481;-69
2022/02/26 05:14:06;;;;;;;1.37;1.20;;;4.00;98.00;;;;;;5092612;28;20448;-70
2022/02/26 05:16:34;;;;;;;1.77;1.40;;;4.10;98.00;;;;;;5113262;28;20480;-69
2022/02/26 05:19:01;;;;;;;1.20;1.20;;;4.20;98.00;;;;;;5112927;28;20455;-69
2022/02/26 05:21:28;;;;;;;1.67;1.50;;;4.10;98.00;;;;;;5111902;28;20542;-69
2022/02/26 05:23:55;;;;;;;1.20;1.13;;;4.00;98.00;;;;;;5113195;28;20481;-69
2022/02/26 05:26:23;;;;;;;1.60;1.23;;;4.00;98.00;;;;;;5112887;28;20681;-69
2022/02/26 05:28:50;;;;;;;2.13;2.00;;;4.10;98.00;;;;;;5112921;28;20904;-69
2022/02/26 05:31:17;;;;;;;1.97;1.60;;;4.00;98.00;;;;;;5112817;28;20508;-69
2022/02/26 05:33:46;;;;;;;1.20;1.03;;;4.20;98.00;;;;;;5112778;28;20549;-69
2022/02/26 05:36:13;;;;;;;1.50;1.27;;;4.20;98.00;;;;;;5112823;28;20448;-69
2022/02/26 05:38:40;;;;;;;1.40;1.20;;;4.20;98.00;;;;;;5112793;28;20971;-69
2022/02/26 05:41:08;;;;;;;1.57;1.50;;;4.20;98.00;;;;;;5112818;28;20535;-69
2022/02/26 05:43:35;;;;;;;1.60;1.30;;;4.20;98.00;;;;;;5112604;28;20466;-69
2022/02/26 05:46:02;;;;;;;1.20;1.10;;;4.20;98.00;;;;;;5112572;28;20520;-69
2022/02/26 05:48:29;;;;;;;1.67;1.53;;;4.20;98.00;;;;;;5112566;27;20802;-69
2022/02/26 05:50:58;;;;;;;1.20;1.00;;;4.10;98.00;;;;;;5112440;28;20487;-69
2022/02/26 05:53:25;;;;;;;1.20;1.00;;;4.10;98.00;;;;;;5112627;28;20447;-69
2022/02/26 05:55:52;;;;;;;3.00;1.73;;;3.90;98.00;;;;;;5112607;28;20850;-69
2022/02/26 05:58:19;;;;;;;2.30;1.83;;;3.90;98.00;;;;;;5112659;28;20464;-69
2022/02/26 06:00:47;;;;;;;1.20;1.20;;;3.80;98.00;;;;;;5112007;28;20970;-69
2022/02/26 06:03:14;;;;;;;1.40;1.40;;;3.80;98.00;;;;;;5112429;28;20973;-69
2022/02/26 06:05:43;;;;;;;1.50;1.40;;;3.90;98.00;;;;;;5112154;28;20572;-69
2022/02/26 06:08:11;;;;;;;1.47;1.30;;;3.90;98.00;;;;;;5112226;28;20888;-69
2022/02/26 06:10:38;;;;;;;1.20;1.13;;;3.80;98.00;;;;;;5112480;28;20499;-69
2022/02/26 06:13:05;;;;;;;1.50;1.40;;;3.80;98.00;;;;;;5111050;28;20483;-69
2022/02/26 06:15:32;;;;;;;1.23;1.20;;;3.90;98.00;;;;;;5091515;28;20494;-69
2022/02/26 06:18:00;;;;;;;1.53;1.40;;;3.90;98.00;;;;;;5091583;28;20489;-69
2022/02/26 06:20:28;;;;;;;1.30;1.27;;;3.90;98.00;;;;;;5091721;28;20502;-69
2022/02/26 06:22:55;;;;;;;1.20;1.10;;;3.90;98.00;;;;;;5091573;28;20463;-69
2022/02/26 06:25:29;;;;;;;1.20;1.20;;;3.90;98.00;;;;;;5091521;28;20949;-70
2022/02/26 06:27:56;;;;;;;1.40;1.30;;;3.90;98.00;;;;;;5090419;28;20493;-69
2022/02/26 06:30:23;;;;;;;1.20;1.00;;;3.90;98.00;;;;;;5091299;28;20892;-69
2022/02/26 06:32:50;;;;;;;1.20;1.00;;;3.80;98.00;;;;;;5091297;28;20535;-69
2022/02/26 06:35:17;;;;;;;2.37;1.93;;;3.80;98.00;;;;;;5091268;28;20486;-69
2022/02/26 06:37:43;;;;;;;1.20;0.97;;;3.80;98.00;;;;;;5091261;28;20488;-69
2022/02/26 06:40:11;;;;;;;2.57;1.50;;;3.80;98.00;;;;;;5091361;28;20851;-69
2022/02/26 06:42:41;;;;;;;1.20;1.00;;;3.90;98.00;;;;;;5091384;28;20449;-69
2022/02/26 06:45:09;;;;;;;1.20;1.10;;;3.90;98.00;;;;;;5091102;28;20485;-69
2022/02/26 06:47:36;;;;;;;1.50;1.10;;;3.90;98.00;;;;;;5091278;28;20574;-69
2022/02/26 06:50:05;;;;;;;1.60;1.57;;;4.00;98.00;;;;;;5091456;28;21059;-69
2022/02/26 06:52:32;;;;;;;1.50;1.30;;;4.00;98.00;;;;;;5091486;28;20444;-70
2022/02/26 06:55:00;;;;;;;1.57;1.33;;;4.00;98.00;;;;;;5091063;28;20492;-69
2022/02/26 06:57:29;;;;;;;1.30;1.20;;;4.00;98.00;;;;;;5090926;28;20518;-69
2022/02/26 06:59:57;;;;;;;1.40;1.20;;;4.10;98.00;;;;;;5090764;28;20504;-69
2022/02/26 07:02:24;;;;;;;1.90;1.83;;;4.20;98.00;;;;;;5091219;28;20553;-69
2022/02/26 07:04:51;;;;;;;1.20;1.10;;;4.20;98.00;;;;;;5091112;28;20524;-69
2022/02/26 07:07:18;;;;;;;1.40;1.10;;;4.20;98.00;;;;;;5089931;28;20913;-69
2022/02/26 07:09:46;;;;;;;1.20;1.17;;;4.30;98.00;;;;;;5090895;28;20837;-69
2022/02/26 07:12:13;;;;;;;2.03;1.30;;;4.40;98.00;;;;;;5090953;28;20515;-69
2022/02/26 07:14:40;;;;;;;1.40;1.30;;;4.40;98.00;;;;;;5090887;28;20458;-69
2022/02/26 07:17:08;;;;;;;2.83;1.70;;;4.40;98.00;;;;;;5090904;28;20675;-69
2022/02/26 07:19:35;;;;;;;1.80;1.80;;;4.50;98.00;;;;;;5090693;28;20549;-69
2022/02/26 07:22:03;;;;;;;1.20;1.03;;;4.60;98.00;;;;;;5091011;28;20524;-69
2022/02/26 07:24:31;;;;;;;1.63;1.37;;;4.50;98.00;;;;;;5091238;28;20486;-69
2022/02/26 07:26:58;;;;;;;2.07;1.93;;;4.60;98.00;;;;;;5094926;28;20900;-69
2022/02/26 07:29:25;;;;;;;1.20;1.10;;;4.60;98.00;;;;;;5095132;28;20664;-69
2022/02/26 07:31:52;;;;;;;1.20;1.10;;;4.70;98.00;;;;;;5094835;28;20534;-69
2022/02/26 07:34:20;;;;;;;1.50;1.30;;;4.70;98.00;;;;;;5094860;28;20453;-69
2022/02/26 07:36:47;;;;;;;2.67;2.50;;;4.80;98.00;;;;;;5094691;28;20524;-69
2022/02/26 07:39:14;;;;;;;1.40;1.20;;;4.90;98.00;;;;;;5094765;28;21007;-69
2022/02/26 07:41:41;;;;;;;5.00;1.60;;;4.90;98.00;;;;;;5095069;28;20458;-69
2022/02/26 07:44:08;;;;;;;1.20;1.00;;;4.90;98.00;;;;;;5094870;28;20506;-69
2022/02/26 07:46:35;;;;;;;1.20;1.10;;;4.90;98.00;;;;;;5094687;28;20513;-69
2022/02/26 07:49:02;;;;;;;1.87;1.67;;;4.90;98.00;;;;;;5094533;28;20492;-69
2022/02/26 07:51:33;;;;;;;1.60;1.60;;;5.00;98.00;;;;;;5094579;28;20482;-69
2022/02/26 07:54:00;;;;;;;2.07;1.57;;;5.00;98.00;;;;;;5094428;28;20538;-69
2022/02/26 07:56:28;;;;;;;1.20;1.13;;;5.10;98.00;;;;;;5094346;28;20498;-69
2022/02/26 07:58:55;;;;;;;1.20;1.00;;;4.90;98.00;;;;;;5094342;28;20954;-70
2022/02/26 08:01:22;;;;;;;1.30;1.20;;;4.80;98.00;;;;;;5094323;28;20497;-71
2022/02/26 08:03:49;;;;;;;1.40;1.40;;;4.80;98.00;;;;;;5094273;28;20490;-69
2022/02/26 08:06:16;;;;;;;1.20;1.20;;;4.90;98.00;;;;;;5094179;28;20855;-70
2022/02/26 08:08:46;;;;;;;1.30;1.10;;;5.00;98.00;;;;;;5094164;28;20791;-71
2022/02/26 08:11:13;;;;;;;1.40;1.30;;;5.00;98.00;;;;;;5094126;28;20960;-70
2022/02/26 08:13:40;;;;;;;1.83;1.63;;;5.00;98.00;;;;;;5094104;28;20449;-69
2022/02/26 08:16:08;;;;;;;2.90;1.97;;;4.90;98.00;;;;;;5093826;28;20511;-69
2022/02/26 08:18:35;;;;;;;1.57;1.57;;;4.90;98.00;;;;;;5093930;28;20456;-69
2022/02/26 08:21:03;;;;;;;2.47;1.53;;;5.10;98.00;;;;;;5093959;28;20501;-69
2022/02/26 08:23:30;;;;;;;2.33;1.40;;;5.20;98.00;;;;;;5093840;28;20502;-70
2022/02/26 08:26:00;;;;;;;1.60;1.30;;;5.30;98.00;;;;;;5093768;28;20540;-69
2022/02/26 08:28:27;;;;;;;1.40;1.20;;;5.50;98.00;;;;;;5093896;28;20506;-69
2022/02/26 08:30:54;;;;;;;2.80;2.00;;;5.60;98.00;;;;;;5093383;28;20886;-70
2022/02/26 08:33:21;;;;;;;1.50;1.40;;;5.50;98.00;;;;;;5094073;28;20961;-70
2022/02/26 08:35:48;;;;;;;1.63;1.57;;;5.40;98.00;;;;;;5093253;28;20555;-69
2022/02/26 08:38:15;;;;;;;1.50;1.37;;;5.30;98.00;;;;;;5093865;28;20982;-69
2022/02/26 08:40:42;;;;;;;1.40;1.37;;;5.50;98.00;;;;;;5099699;28;20520;-69
2022/02/26 08:43:12;;;;;;;2.40;1.83;;;5.70;98.00;;;;;;5102334;28;20521;-69
2022/02/26 08:45:42;;;;;;;3.73;2.20;;;5.80;98.00;;;;;;5101665;28;20527;-68
2022/02/26 08:48:10;;;;;;;1.50;1.20;;;5.90;98.00;;;;;;5093320;28;20505;-71
2022/02/26 08:50:38;;;;;;;1.20;1.20;;;6.00;98.00;;;;;;5093194;28;20463;-71
2022/02/26 08:53:05;;;;;;;3.47;2.03;;;5.90;98.00;;;;;;5093266;28;20473;-69
2022/02/26 08:55:32;;;;;;;1.50;1.40;;;5.90;98.00;;;;;;5093468;28;20456;-70
2022/02/26 08:57:59;;;;;;;1.90;1.83;;;5.80;98.00;;;;;;5093051;28;20503;-70
2022/02/26 09:00:28;;;;;;;1.30;1.17;;;5.80;98.00;;;;;;5099378;28;20496;-69
2022/02/26 09:02:57;;;;;;;1.90;1.73;;;6.00;98.00;;;;;;5111495;28;20944;-70
2022/02/26 09:05:25;;;;;;;1.70;1.10;;;6.00;98.00;;;;;;5111412;28;20453;-68
2022/02/26 09:07:51;;;;;;;3.03;1.90;;;6.20;98.00;;;;;;5112387;28;20521;-69
2022/02/26 09:10:18;;;;;;;1.20;1.10;;;6.20;98.00;;;;;;5113070;28;20864;-69
2022/02/26 09:12:45;;;;;;;1.40;1.17;;;6.20;98.00;;;;;;5113298;28;20524;-69
2022/02/26 09:15:13;;;;;;;2.17;1.53;;;6.30;98.00;;;;;;5114269;28;20480;-69
2022/02/26 09:17:43;;;;;;;1.30;1.13;;;6.20;98.00;;;;;;5113049;28;20457;-69
2022/02/26 09:20:12;;;;;;;1.30;1.10;;;6.10;98.00;;;;;;5114114;28;20855;-69
2022/02/26 09:22:40;;;;;;;1.20;1.10;;;6.20;98.00;;;;;;5114351;28;20451;-70
2022/02/26 09:25:08;;;;;;;1.47;1.10;;;6.40;98.00;;;;;;5112858;28;20486;-70
2022/02/26 09:27:35;;;;;;;1.20;1.10;;;6.60;98.00;;;;;;5113810;28;20865;-70
2022/02/26 09:30:04;;;;;;;1.17;0.90;;;6.50;98.00;;;;;;5113888;27;20456;-69
2022/02/26 09:32:34;;;;;;;1.87;1.20;;;6.50;98.00;;;;;;5113651;28;20456;-69
2022/02/26 09:35:02;;;;;;;1.20;1.10;;;6.50;98.00;;;;;;5112445;28;20871;-69
2022/02/26 09:37:30;;;;;;;1.93;1.30;;;6.60;98.00;;;;;;5113501;28;20447;-69
2022/02/26 09:39:59;;;;;;;1.20;0.90;;;6.70;97.00;;;;;;5113402;28;20508;-69
2022/02/26 09:42:27;;;;;;;1.43;1.30;;;6.60;94.80;;;;;;5113717;28;20463;-70
2022/02/26 09:44:54;;;;;;;1.20;1.00;;;6.60;97.30;;;;;;5113179;28;20455;-69
2022/02/26 09:47:22;;;;;;;1.20;1.03;;;6.70;98.00;;;;;;5113105;28;20949;-70
2022/02/26 09:49:49;;;;;;;1.20;1.00;;;6.70;97.80;;;;;;5112472;28;20487;-68
2022/02/26 09:52:18;;;;;;;1.20;0.90;;;6.80;96.90;;;;;;5113540;28;20512;-69
2022/02/26 09:54:48;;;;;;;1.20;1.00;;;6.80;95.60;;;;;;5112000;28;20454;-69
2022/02/26 09:57:17;;;;;;;1.20;0.90;;;6.80;97.20;;;;;;5113287;28;20472;-70
2022/02/26 09:59:45;;;;;;;1.20;1.00;;;6.90;96.20;;;;;;5111840;28;20454;-69
2022/02/26 10:02:14;;;;;;;1.87;1.20;;;6.80;96.90;;;;;;5112991;28;20493;-69
2022/02/26 10:04:55;;;;;;;1.20;1.10;;;6.60;97.30;;;;;;5112969;28;20557;-69
2022/02/26 10:07:27;;;;;;;1.30;1.10;;;6.60;98.00;;;;;;5111985;28;21000;-69
2022/02/26 10:09:55;;;;;;;1.93;1.40;;;6.70;98.00;;;;;;5113006;28;20538;-68
2022/02/26 10:12:25;;;;;;;1.20;1.00;;;6.80;95.80;;;;;;5112017;28;20516;-70
2022/02/26 10:14:53;;;;;;;1.20;1.07;;;7.00;96.00;;;;;;5113329;28;20498;-69
2022/02/26 10:17:31;;;;;;;2.03;1.17;;;7.20;95.20;;;;;;5113212;28;20500;-69
2022/02/26 10:20:13;;;;;;;1.13;1.00;;;7.20;96.40;;;;;;5112525;28;20450;-69
2022/02/26 10:22:48;;;;;;;1.20;1.00;;;7.40;94.80;;;;;;5112703;28;20462;-69
2022/02/26 10:25:25;;;;;;;1.20;1.00;;;7.80;92.00;;;;;;5112499;28;20505;-69
2022/02/26 10:27:55;;;;;;;3.20;1.10;;;8.40;90.40;;;;;;5112452;28;20485;-69
2022/02/26 10:30:24;;;;;;;1.20;1.00;;;8.60;89.70;;;;;;5112345;28;20520;-69
2022/02/26 10:33:05;;;;;;;1.20;1.00;;;9.00;89.00;;;;;;5112499;28;20494;-69
2022/02/26 10:35:37;;;;;;;1.20;1.00;;;8.80;86.30;;;;;;5112474;28;20477;-69
2022/02/26 10:38:14;;;;;;;1.20;1.00;;;8.80;86.00;;;;;;5112565;28;20483;-69
2022/02/26 10:40:53;;;;;;;19.60;1.20;;;8.70;89.70;;;;;;5112180;28;20877;-69
2022/02/26 10:43:41;;;;;;;1.20;1.00;;;8.80;88.00;;;;;;5111558;28;20515;-69
2022/02/26 10:46:16;;;;;;;1.20;1.00;;;8.60;87.80;;;;;;5111447;28;20455;-69
2022/02/26 10:48:43;;;;;;;1.50;1.10;;;8.60;86.00;;;;;;5111625;28;20509;-70
2022/02/26 10:51:15;;;;;;;1.67;1.33;;;8.60;87.20;;;;;;5111553;28;20512;-69
2022/02/26 10:53:44;;;;;;;2.07;1.70;;;8.50;85.90;;;;;;5111471;28;20458;-69
2022/02/26 10:56:12;;;;;;;1.20;1.00;;;8.40;86.60;;;;;;5111447;28;20456;-69
2022/02/26 10:58:41;;;;;;;1.20;1.00;;;8.20;86.30;;;;;;5111385;28;20471;-70
2022/02/26 11:01:13;;;;;;;1.87;1.23;;;8.00;88.10;;;;;;5109826;28;20482;-69
2022/02/26 11:03:41;;;;;;;1.20;1.00;;;7.90;89.20;;;;;;5111551;28;20871;-69
2022/02/26 11:06:09;;;;;;;2.17;1.70;;;7.80;88.90;;;;;;5111481;28;20855;-69
2022/02/26 11:08:37;;;;;;;1.20;1.00;;;7.80;88.80;;;;;;5111407;28;20486;-69
2022/02/26 11:11:09;;;;;;;1.20;0.97;;;7.80;89.90;;;;;;5111472;28;20484;-69
2022/02/26 11:13:38;;;;;;;1.20;1.10;;;7.90;89.90;;;;;;5110143;28;20817;-68
2022/02/26 11:16:07;;;;;;;1.20;1.10;;;7.90;87.20;;;;;;5111226;28;20537;-70
2022/02/26 11:18:40;;;;;;;1.20;1.00;;;7.80;88.60;;;;;;5109414;28;20487;-69
2022/02/26 11:21:10;;;;;;;1.20;1.00;;;7.60;90.10;;;;;;5111079;28;20447;-68
2022/02/26 11:23:38;;;;;;;1.20;1.00;;;7.60;90.20;;;;;;5111369;28;20733;-69
2022/02/26 11:26:09;;;;;;;1.20;1.00;;;7.70;90.00;;;;;;5111214;28;20548;-69
2022/02/26 11:28:37;;;;;;;1.20;1.00;;;8.10;90.20;;;;;;5110951;28;20538;-69
2022/02/26 11:31:09;;;;;;;1.20;1.00;;;8.90;87.40;;;;;;5111164;28;20461;-69
2022/02/26 11:33:37;;;;;;;17.13;1.50;;;9.70;86.30;;;;;;5111375;28;20474;-70
2022/02/26 11:36:06;;;;;;;1.20;1.00;;;10.40;81.70;;;;;;5109395;28;20538;-69
2022/02/26 11:38:36;;;;;;;1.63;1.50;;;11.00;80.40;;;;;;5110048;28;21009;-70
2022/02/26 11:41:19;;;;;;;1.60;1.20;;;11.60;81.40;;;;;;5109773;28;21012;-70
2022/02/26 11:43:47;;;;;;;1.20;1.00;;;12.20;78.50;;;;;;5110605;28;20488;-69
2022/02/26 11:46:19;;;;;;;1.20;1.00;;;12.40;78.60;;;;;;5109267;28;20507;-70
2022/02/26 11:48:47;;;;;;;1.20;1.00;;;11.80;78.80;;;;;;5110905;28;20905;-70
2022/02/26 11:51:15;;;;;;;1.80;1.43;;;10.90;80.40;;;;;;5110814;28;20454;-70
2022/02/26 11:53:43;;;;;;;1.20;1.00;;;10.40;81.90;;;;;;5111295;28;20444;-69
2022/02/26 11:56:11;;;;;;;1.20;1.10;;;10.70;81.00;;;;;;5110210;28;20452;-69
2022/02/26 11:58:43;;;;;;;1.40;1.10;;;11.20;83.00;;;;;;5110994;28;20546;-69
2022/02/26 12:01:11;;;;;;;1.20;1.00;;;11.70;81.10;;;;;;5110479;28;20545;-70
2022/02/26 12:03:49;;;;;;;1.20;1.00;;;12.20;79.10;;;;;;5110825;28;20454;-70
2022/02/26 12:06:43;;;;;;;1.60;1.37;;;12.10;79.10;;;;;;5110982;28;20456;-70
2022/02/26 12:09:13;;;;;;;1.20;0.90;;;12.30;78.50;;;;;;5110904;28;20536;-70
2022/02/26 12:11:46;;;;;;;2.40;1.30;;;12.00;78.60;;;;;;5110837;28;20940;-69
2022/02/26 12:14:30;;;;;;;1.70;1.30;;;11.80;80.10;;;;;;5114537;28;20505;-70
2022/02/26 12:17:04;;;;;;;1.20;1.00;;;11.20;80.70;;;;;;5114364;28;20590;-70
2022/02/26 12:19:31;;;;;;;1.37;1.20;;;10.60;81.30;;;;;;5114515;28;21113;-70
2022/02/26 12:22:01;;;;;;;1.20;1.00;;;10.20;84.20;;;;;;5114312;28;20486;-70
2022/02/26 12:24:30;;;;;;;2.23;1.37;;;9.80;83.50;;;;;;5113974;28;20994;-70
2022/02/26 12:27:07;;;;;;;1.40;1.10;;;9.70;84.30;;;;;;5114342;28;20450;-69
2022/02/26 12:29:54;;;;;;;1.47;1.17;;;9.60;83.90;;;;;;5113971;28;20460;-69
2022/02/26 12:32:25;;;;;;;1.97;1.30;;;9.40;85.00;;;;;;5114093;27;20539;-70
2022/02/26 12:35:01;;;;;;;3.97;1.40;;;9.30;83.90;;;;;;5113925;28;20452;-70
2022/02/26 12:37:30;;;;;;;1.20;1.00;;;9.10;85.10;;;;;;5113859;28;20813;-70
2022/02/26 12:40:03;;;;;;;1.20;1.00;;;9.20;86.20;;;;;;5114069;28;20477;-70
2022/02/26 12:42:35;;;;;;;14.50;2.00;;;9.00;85.00;;;;;;5113736;28;20480;-70
2022/02/26 12:45:06;;;;;;;1.37;1.23;;;8.80;86.00;;;;;;5113908;28;20527;-69
2022/02/26 12:47:44;;;;;;;1.60;1.30;;;8.50;86.10;;;;;;5113758;28;20519;-70
2022/02/26 12:50:15;;;;;;;1.50;1.10;;;8.80;87.00;;;;;;5114037;28;20461;-69
2022/02/26 12:52:43;;;;;;;2.40;1.30;;;9.30;85.60;;;;;;5114058;28;20451;-70
2022/02/26 12:55:12;;;;;;;2.70;1.20;;;9.70;83.20;;;;;;5113571;28;20491;-70
2022/02/26 12:57:41;;;;;;;1.20;1.00;;;9.80;83.90;;;;;;5113173;28;21005;-70
2022/02/26 13:00:12;;;;;;;1.20;1.10;;;10.00;82.50;;;;;;5113433;28;20479;-70
2022/02/26 13:02:41;;;;;;;2.90;1.93;;;10.20;82.90;;;;;;5113563;28;20809;-70